Time;durP1;ratioP1;P1;durP2;ratioP2;P2;SDS_P1;SDS_P2;PMS_P1;PMS_P2;Temp;Humidity;BMP_temperature;BMP_pressure;BME280_temperature;BME280_humidity;BME280_pressure;Samples;Min_cycle;Max_cycle;Signal;HPM_P1;HPM_P2
2023/03/23 00:02:09;;;;;;;15.52;5.97;;;;;;;13.41;71.89;100508.50;12527755;23;96755;-83
2023/03/23 00:07:12;;;;;;;13.20;5.82;;;;;;;13.30;72.31;100498.44;12553421;23;96655;-83
2023/03/23 00:12:15;;;;;;;11.15;5.63;;;;;;;13.33;71.91;100495.63;12554454;23;96640;-83
2023/03/23 00:17:20;;;;;;;10.57;5.75;;;;;;;13.27;72.10;100495.94;12553272;23;96670;-83
2023/03/23 00:22:24;;;;;;;13.48;5.57;;;;;;;13.37;72.52;100496.34;12553365;23;96801;-82
2023/03/23 00:27:29;;;;;;;13.93;5.63;;;;;;;13.36;72.57;100492.84;12526249;23;96810;-83
2023/03/23 00:32:33;;;;;;;12.02;5.43;;;;;;;13.54;72.22;100488.47;12552840;23;96695;-83
2023/03/23 00:37:35;;;;;;;12.25;5.85;;;;;;;13.35;73.41;100475.28;12553034;23;97190;-83
2023/03/23 00:42:38;;;;;;;11.32;5.80;;;;;;;13.55;72.66;100467.25;12552398;23;96964;-83
2023/03/23 00:47:46;;;;;;;12.02;5.25;;;;;;;13.49;73.12;100462.25;12552662;23;96679;-83
2023/03/23 00:52:52;;;;;;;10.30;5.65;;;;;;;13.29;73.62;100453.56;12555784;23;96711;-82
2023/03/23 00:57:57;;;;;;;12.25;5.97;;;;;;;13.28;73.33;100439.50;12616540;23;96617;-82
2023/03/23 01:03:00;;;;;;;14.27;6.38;;;;;;;12.95;74.23;100422.59;12616852;23;96668;-82
2023/03/23 01:08:07;;;;;;;11.50;6.38;;;;;;;12.87;75.30;100426.50;12615958;23;96667;-82
2023/03/23 01:13:12;;;;;;;12.30;6.13;;;;;;;12.87;75.01;100411.53;12615511;23;97116;-82
2023/03/23 01:18:16;;;;;;;13.13;6.03;;;;;;;12.88;75.31;100405.31;12615021;23;96976;-82
2023/03/23 01:23:20;;;;;;;12.65;5.65;;;;;;;12.92;75.04;100398.97;12615647;23;96671;-82
2023/03/23 01:28:23;;;;;;;10.40;6.17;;;;;;;12.68;74.82;100389.53;12615905;23;96713;-82
2023/03/23 01:33:27;;;;;;;11.80;5.95;;;;;;;12.68;75.82;100378.97;12615864;23;96769;-82
2023/03/23 01:38:36;;;;;;;11.73;5.50;;;;;;;12.90;75.04;100377.03;12589336;23;96719;-82
2023/03/23 01:44:03;;;;;;;12.07;5.63;;;;;;;12.61;75.13;100374.88;12588405;23;96807;-82
2023/03/23 01:49:11;;;;;;;15.93;5.82;;;;;;;12.51;75.98;100377.06;12615694;23;96707;-82
2023/03/23 01:54:21;;;;;;;10.55;5.88;;;;;;;12.60;75.02;100383.72;12616806;23;96758;-82
2023/03/23 01:59:30;;;;;;;13.63;5.93;;;;;;;12.57;75.08;100368.00;12615664;23;96699;-82
2023/03/23 02:04:35;;;;;;;14.32;5.60;;;;;;;12.59;75.13;100363.53;12588472;23;97013;-82
2023/03/23 02:09:36;;;;;;;;;;;;;;;12.50;75.86;100366.56;12588280;23;96794;-82
2023/03/23 02:14:41;;;;;;;8.88;5.72;;;;;;;12.65;74.60;100365.06;12615023;23;96766;-82
2023/03/23 02:20:08;;;;;;;11.23;5.65;;;;;;;12.50;75.52;100358.66;12588801;23;96754;-82
2023/03/23 02:25:28;;;;;;;8.32;5.18;;;;;;;12.30;76.18;100354.31;12589448;23;96755;-82
2023/03/23 02:30:54;;;;;;;11.23;6.38;;;;;;;12.26;76.79;100344.81;12588686;23;96740;-82
2023/03/23 02:36:01;;;;;;;13.65;5.90;;;;;;;12.19;76.84;100342.50;12615209;23;97088;-82
2023/03/23 02:41:04;;;;;;;10.38;5.10;;;;;;;12.16;76.85;100338.22;12615208;23;96808;-82
2023/03/23 03:51:19;;;;;;;7.60;4.28;;;;;;;11.76;77.45;100258.31;12573099;23;99069;-81
2023/03/23 03:56:23;;;;;;;9.55;4.60;;;;;;;11.54;78.17;100276.00;12588093;23;96702;-82
2023/03/23 04:01:27;;;;;;;11.43;5.03;;;;;;;11.36;78.81;100278.50;12613353;23;96643;-81
2023/03/23 04:06:35;;;;;;;11.20;4.70;;;;;;;11.37;79.43;100279.38;12614391;23;96640;-82
2023/03/23 04:11:39;;;;;;;9.85;4.82;;;;;;;11.54;78.34;100271.59;12587805;23;96796;-82
2023/03/23 04:16:43;;;;;;;14.07;4.55;;;;;;;11.58;78.40;100280.22;12614214;23;96629;-82
2023/03/23 04:21:50;;;;;;;10.30;5.07;;;;;;;11.56;77.96;100284.69;12613631;23;96855;-82
2023/03/23 04:26:56;;;;;;;8.85;4.40;;;;;;;11.79;77.16;100295.06;12587723;23;96717;-82
2023/03/23 04:32:06;;;;;;;9.35;4.18;;;;;;;11.87;76.91;100285.94;12613823;23;96706;-82
2023/03/23 04:37:09;;;;;;;8.50;4.53;;;;;;;11.95;77.21;100286.44;12588728;23;97082;-82
2023/03/23 04:42:13;;;;;;;10.38;4.53;;;;;;;11.71;78.77;100273.47;12613747;23;96624;-82
2023/03/23 04:47:33;;;;;;;;;;;;;;;;;;;;;
2023/03/23 04:52:40;;;;;;;12.35;4.63;;;;;;;11.64;78.54;100258.84;12611324;23;96797;-82
2023/03/23 04:57:46;;;;;;;6.43;3.53;;;;;;;11.68;77.64;100256.03;12587125;23;96772;-82
2023/03/23 05:02:51;;;;;;;9.02;3.85;;;;;;;11.66;78.02;100257.00;12613145;23;96633;-82
2023/03/23 05:07:57;;;;;;;9.47;3.70;;;;;;;11.71;77.69;100261.16;12613596;23;96816;-82
2023/03/23 05:13:15;;;;;;;6.35;3.05;;;;;;;11.74;76.83;100263.66;12613399;23;96998;-82
2023/03/23 05:18:27;;;;;;;5.95;3.03;;;;;;;11.75;77.37;100256.63;12586669;23;96788;-82
2023/03/23 05:23:33;;;;;;;7.63;3.20;;;;;;;11.58;78.03;100243.31;12586351;23;96892;-82
2023/03/23 05:28:37;;;;;;;7.35;3.28;;;;;;;11.57;78.80;100250.38;12614009;23;96649;-82
2023/03/23 05:33:43;;;;;;;8.10;3.00;;;;;;;11.74;77.36;100242.56;12613174;23;96669;-82
2023/03/23 05:39:09;;;;;;;5.75;3.08;;;;;;;11.83;75.91;100246.56;12612635;23;96788;-82
2023/03/23 05:44:16;;;;;;;5.50;2.75;;;;;;;12.06;75.24;100256.94;12587650;23;97549;-82
2023/03/23 05:49:18;;;;;;;7.30;2.60;;;;;;;12.06;75.68;100235.84;12615137;23;96710;-82
2023/03/23 05:54:26;;;;;;;5.30;2.40;;;;;;;12.15;74.84;100241.53;12615608;23;96686;-82
2023/03/23 05:59:33;;;;;;;6.53;2.53;;;;;;;12.20;74.19;100241.34;12615743;23;96630;-82
2023/03/23 06:04:40;;;;;;;8.10;2.80;;;;;;;12.27;74.68;100251.53;12615994;23;97172;-82
2023/03/23 06:09:46;;;;;;;8.98;3.25;;;;;;;12.12;74.82;100261.94;12615473;23;97186;-81
2023/03/23 06:14:48;;;;;;;6.78;3.25;;;;;;;12.01;75.65;100262.41;12615859;23;96738;-81
2023/03/23 06:19:52;;;;;;;5.43;2.67;;;;;;;12.10;75.62;100262.00;12615912;23;96585;-81
2023/03/23 06:24:57;;;;;;;6.90;3.40;;;;;;;12.15;75.55;100261.81;12615267;23;96509;-81
2023/03/23 06:29:59;;;;;;;7.50;3.43;;;;;;;12.12;76.15;100259.28;12588878;23;96708;-81
2023/03/23 06:35:09;;;;;;;8.07;3.30;;;;;;;12.15;75.91;100264.44;12613905;23;96661;-81
2023/03/23 06:40:12;;;;;;;5.82;3.55;;;;;;;12.19;75.99;100258.94;12588964;23;96717;-81
2023/03/23 06:45:38;;;;;;;9.23;3.40;;;;;;;12.20;75.60;100263.28;12588883;23;96957;-82
2023/03/23 06:50:43;;;;;;;7.22;3.33;;;;;;;12.23;75.66;100268.44;12614285;23;96794;-82
2023/03/23 06:55:48;;;;;;;8.40;3.20;;;;;;;12.25;75.07;100266.59;12588493;23;97336;-82
2023/03/23 07:00:56;;;;;;;6.65;3.38;;;;;;;12.39;74.65;100261.50;12614908;23;96638;-82
2023/03/23 07:06:00;;;;;;;7.45;3.05;;;;;;;12.43;74.93;100256.94;12588708;23;96587;-82
2023/03/23 07:11:06;;;;;;;8.32;3.15;;;;;;;12.41;74.66;100266.75;12589165;23;96947;-82
2023/03/23 07:16:12;;;;;;;7.82;3.15;;;;;;;12.41;74.81;100272.00;12614920;23;97204;-82
2023/03/23 07:21:16;;;;;;;4.57;2.95;;;;;;;12.52;74.78;100277.63;12614727;23;97043;-82
2023/03/23 07:26:21;;;;;;;6.67;2.83;;;;;;;12.61;74.45;100287.75;12614112;23;96695;-82
2023/03/23 07:31:26;;;;;;;9.53;3.40;;;;;;;12.72;74.22;100285.50;12588240;23;96824;-81
2023/03/23 07:36:31;;;;;;;7.25;2.85;;;;;;;12.94;73.52;100280.91;12614765;23;97431;-82
2023/03/23 07:41:39;;;;;;;3.35;2.42;;;;;;;13.09;73.48;100274.84;12588307;23;96740;-82
2023/03/23 07:46:41;;;;;;;8.23;2.90;;;;;;;13.22;72.46;100269.81;12588190;23;96716;-81
2023/03/23 07:51:45;;;;;;;6.90;3.00;;;;;;;13.22;72.38;100262.75;12613876;23;96800;-82
2023/03/23 07:57:06;;;;;;;;;;;;;;;;;;;;;
2023/03/23 08:02:13;;;;;;;8.50;3.15;;;;;;;13.09;73.08;100256.34;12603896;23;97095;-82
2023/03/23 08:07:17;;;;;;;8.45;2.90;;;;;;;13.03;72.44;100251.41;12614575;23;96643;-82
2023/03/23 08:12:22;;;;;;;7.97;2.95;;;;;;;13.18;71.79;100260.31;12614276;23;96744;-81
2023/03/23 08:17:26;;;;;;;8.38;2.92;;;;;;;13.29;70.72;100258.84;12586599;23;96800;-81
2023/03/23 08:22:30;;;;;;;6.82;2.55;;;;;;;14.07;68.92;100263.63;12613904;23;96602;-82
2023/03/23 08:27:34;;;;;;;6.75;2.42;;;;;;;14.83;66.97;100277.00;12613883;23;96692;-82
2023/03/23 08:32:38;;;;;;;6.30;2.78;;;;;;;15.02;66.06;100271.50;12614047;23;97092;-82
2023/03/23 08:37:41;;;;;;;11.27;3.90;;;;;;;14.94;66.17;100287.81;12587028;23;96785;-82
2023/03/23 08:42:48;;;;;;;8.98;3.70;;;;;;;14.93;66.54;100309.97;12613968;23;96646;-82
2023/03/23 08:47:59;;;;;;;6.90;3.08;;;;;;;15.04;66.35;100312.03;12587516;23;96700;-83
2023/03/23 08:53:02;;;;;;;6.18;3.33;;;;;;;15.12;65.90;100297.38;12613926;23;96911;-82
2023/03/23 08:58:05;;;;;;;7.20;3.30;;;;;;;15.29;64.99;100299.94;12613837;23;96743;-82
2023/03/23 09:03:18;;;;;;;;;;;;;;;;;;;;;
2023/03/23 09:59:25;;;;;;;5.97;3.45;;;;;;;20.51;50.41;100256.31;12535028;23;97432;-83
2023/03/23 10:04:39;;;;;;;6.70;3.75;;;;;;;21.20;48.62;100255.94;12582846;23;96824;-83
2023/03/23 10:09:43;;;;;;;7.60;4.57;;;;;;;21.66;48.05;100278.84;12588994;23;96709;-83
2023/03/23 10:14:58;;;;;;;6.68;4.00;;;;;;;22.55;45.33;100285.28;12615507;23;96651;-83
2023/03/23 10:20:19;;;;;;;4.68;2.50;;;;;;;22.46;45.34;100303.03;12615204;23;96704;-80
2023/03/23 10:25:29;;;;;;;3.72;2.55;;;;;;;23.61;43.73;100311.41;12615197;23;96661;-80
2023/03/23 10:30:43;;;;;;;4.43;2.58;;;;;;;24.04;41.40;100298.34;12614872;23;97354;-80
2023/03/23 10:36:00;;;;;;;6.43;2.67;;;;;;;25.11;40.58;100293.25;12615315;23;96762;-81
2023/03/23 10:41:23;;;;;;;3.80;2.15;;;;;;;26.42;38.01;100309.38;12615985;23;96617;-80
2023/03/23 10:46:37;;;;;;;5.00;2.55;;;;;;;25.38;40.01;100324.69;12615498;23;97003;-81
2023/03/23 10:51:42;;;;;;;;;;;;;;;23.46;43.12;100334.25;12615685;23;96506;-80
2023/03/23 10:56:47;;;;;;;4.65;3.17;;;;;;;22.30;45.55;100308.03;12588027;23;96715;-80
2023/03/23 11:02:03;;;;;;;4.55;2.75;;;;;;;21.24;48.56;100323.44;12614351;23;96816;-80
2023/03/23 11:07:06;;;;;;;4.10;2.80;;;;;;;20.69;50.32;100304.81;12588912;23;97097;-80
2023/03/23 11:12:22;;;;;;;5.32;3.33;;;;;;;20.26;52.86;100309.97;12615086;23;96770;-82
2023/03/23 11:17:29;;;;;;;5.78;3.15;;;;;;;19.55;54.61;100275.47;12614845;23;96676;-83
2023/03/23 11:22:36;;;;;;;4.28;2.80;;;;;;;19.39;55.59;100277.56;12614765;23;97853;-82
2023/03/23 11:27:44;;;;;;;5.10;3.30;;;;;;;19.07;57.21;100281.78;12588338;23;96790;-82
2023/03/23 11:32:58;;;;;;;;;;;;;;;;;;;;;
2023/03/23 11:38:07;;;;;;;5.23;2.07;;;;;;;18.86;57.79;100286.91;12610699;23;96906;-82
2023/03/23 11:43:14;;;;;;;4.60;1.92;;;;;;;18.60;58.60;100287.06;12587910;23;96808;-83
2023/03/23 11:48:27;;;;;;;2.45;1.52;;;;;;;19.62;57.01;100289.19;12587005;23;97007;-82
2023/03/23 11:53:43;;;;;;;4.05;2.10;;;;;;;19.52;57.08;100288.22;12588030;23;96595;-82
2023/03/23 11:58:53;;;;;;;3.13;1.50;;;;;;;19.12;57.63;100267.16;12587460;23;97176;-82
2023/03/23 12:04:26;;;;;;;1.83;1.25;;;;;;;19.38;57.46;100272.34;12587913;23;97262;-83
2023/03/23 12:09:48;;;;;;;2.72;1.80;;;;;;;19.41;57.53;100283.69;12614111;23;96608;-83
2023/03/23 12:15:04;;;;;;;2.65;1.42;;;;;;;19.04;58.58;100266.03;12614623;23;97011;-82
2023/03/23 12:20:28;;;;;;;3.88;1.55;;;;;;;19.20;57.79;100267.44;12614084;23;96627;-82
2023/03/23 12:26:15;;;;;;;2.13;1.40;;;;;;;18.89;58.67;100278.66;12615264;23;96592;-83
2023/03/23 12:31:33;;;;;;;3.30;1.30;;;;;;;18.89;58.26;100269.81;12614160;23;96807;-82
2023/03/23 12:36:50;;;;;;;3.22;1.80;;;;;;;18.59;59.48;100283.53;12588160;23;96691;-82
2023/03/23 12:42:04;;;;;;;2.53;1.70;;;;;;;18.40;59.23;100268.97;12586297;23;97125;-83
2023/03/23 12:47:26;;;;;;;3.88;1.30;;;;;;;18.11;60.08;100282.53;12613991;23;96667;-82
2023/03/23 12:52:46;;;;;;;2.95;1.30;;;;;;;18.11;59.74;100279.88;12590408;23;98072;-83
2023/03/23 12:57:55;;;;;;;1.92;1.20;;;;;;;18.01;59.87;100276.16;12616447;23;96806;-83
2023/03/23 13:03:05;;;;;;;2.35;1.42;;;;;;;18.24;59.37;100279.00;12615409;23;99156;-82
2023/03/23 13:08:21;;;;;;;2.20;1.50;;;;;;;18.28;59.35;100276.00;12616278;23;96652;-83
2023/03/23 13:13:26;;;;;;;1.92;1.30;;;;;;;18.31;59.01;100286.47;12616144;23;96706;-82
2023/03/23 13:18:45;;;;;;;2.10;1.10;;;;;;;17.94;59.49;100263.34;12616680;23;96959;-82
2023/03/23 13:23:58;;;;;;;2.75;1.30;;;;;;;18.36;58.35;100263.00;12616007;23;96585;-82
2023/03/23 13:29:08;;;;;;;3.17;1.98;;;;;;;18.62;57.89;100278.00;12615533;23;96661;-83
2023/03/23 13:34:21;;;;;;;3.65;1.90;;;;;;;18.66;58.33;100287.47;12615102;23;96893;-83
2023/03/23 13:39:30;;;;;;;2.88;1.67;;;;;;;18.53;57.86;100283.13;12615673;23;96722;-82
2023/03/23 13:44:46;;;;;;;2.80;2.10;;;;;;;18.67;58.36;100273.19;12589699;23;96721;-82
2023/03/23 13:49:53;;;;;;;4.00;2.05;;;;;;;19.13;57.43;100262.66;12615874;23;96807;-82
2023/03/23 13:55:44;;;;;;;3.75;2.00;;;;;;;18.76;56.39;100245.88;12615842;23;96652;-83
2023/03/23 14:00:49;;;;;;;3.65;2.10;;;;;;;18.83;57.12;100239.13;12587532;23;96957;-82
2023/03/23 14:06:03;;;;;;;3.75;1.85;;;;;;;18.54;56.30;100244.88;12589322;23;96779;-83
2023/03/23 14:11:18;;;;;;;3.67;1.60;;;;;;;18.32;56.89;100221.56;12616283;23;96694;-82
2023/03/23 14:16:28;;;;;;;3.28;1.83;;;;;;;18.22;57.56;100227.63;12589443;23;96594;-82
2023/03/23 14:21:36;;;;;;;4.03;2.13;;;;;;;18.43;57.63;100215.44;12615223;23;96673;-83
2023/03/23 14:26:51;;;;;;;;;;;;;;;;;;;;;
2023/03/23 15:34:38;;;;;;;6.28;3.88;;;;;;;19.00;60.00;100189.88;12588242;23;97593;-82
2023/03/23 15:39:43;;;;;;;9.30;5.60;;;;;;;18.60;60.37;100183.97;12553482;23;96639;-80
2023/03/23 15:44:56;;;;;;;5.60;4.05;;;;;;;18.78;60.37;100165.78;12553591;23;96671;-81
2023/03/23 15:50:13;;;;;;;4.72;2.60;;;;;;;19.02;59.17;100174.59;12527495;23;96779;-83
2023/03/23 15:55:27;;;;;;;5.18;3.08;;;;;;;18.78;60.16;100171.09;12553593;23;96696;-83
2023/03/23 16:00:29;;;;;;;5.50;3.70;;;;;;;18.86;60.25;100168.72;12528409;23;96653;-81
2023/03/23 16:05:37;;;;;;;3.33;2.00;;;;;;;18.32;61.53;100192.25;12553325;23;96661;-82
2023/03/23 16:10:45;;;;;;;2.63;1.77;;;;;;;18.32;62.30;100173.59;12553322;23;96775;-82
2023/03/23 16:15:54;;;;;;;4.30;2.22;;;;;;;18.16;62.99;100200.47;12552047;23;96634;-83
2023/03/23 16:21:02;;;;;;;6.78;4.57;;;;;;;17.79;64.08;100179.25;12553301;23;96647;-82
2023/03/23 16:26:16;;;;;;;;;;;;;;;;;;;;;
2023/03/23 16:31:35;;;;;;;3.05;1.70;;;;;;;17.81;61.78;100164.03;12552237;23;96570;-82
2023/03/23 16:36:40;;;;;;;3.72;1.70;;;;;;;17.93;60.92;100163.16;12552597;23;96651;-82
2023/03/23 16:41:54;;;;;;;;;;;;;;;;;;;;;
2023/03/23 16:47:03;;;;;;;4.32;2.25;;;;;;;17.75;61.17;100170.63;12608495;23;96805;-82
2023/03/23 16:52:08;;;;;;;4.45;2.55;;;;;;;17.76;61.58;100156.34;12614824;23;96694;-83
2023/03/23 16:57:13;;;;;;;5.13;2.92;;;;;;;17.69;61.45;100152.41;12614090;23;96686;-81
2023/03/23 17:02:21;;;;;;;7.15;3.97;;;;;;;17.61;61.88;100162.75;12613761;23;96799;-82
2023/03/23 17:07:33;;;;;;;;;;;;;;;17.54;62.70;100163.28;12612372;23;96783;-82
2023/03/23 17:12:37;;;;;;;8.23;4.25;;;;;;;17.62;62.39;100166.28;12613544;23;96619;-82
2023/03/23 17:17:43;;;;;;;3.90;2.20;;;;;;;17.65;62.12;100182.88;12612937;23;97109;-83
2023/03/23 17:22:48;;;;;;;;;;;;;;;17.48;62.83;100183.19;12613696;23;96657;-83
2023/03/23 17:27:53;;;;;;;5.80;2.85;;;;;;;17.50;62.49;100181.25;12613399;23;96645;-82
2023/03/23 17:32:56;;;;;;;6.95;3.72;;;;;;;17.54;62.60;100171.25;12613255;23;96707;-82
2023/03/23 17:38:02;;;;;;;7.10;3.08;;;;;;;17.45;62.91;100191.31;12615513;23;96631;-82
2023/03/23 17:43:07;;;;;;;5.95;2.97;;;;;;;17.41;63.11;100196.97;12616860;23;96734;-82
2023/03/23 17:48:15;;;;;;;4.55;2.83;;;;;;;17.44;63.15;100200.28;12615735;23;96805;-82
2023/03/23 17:53:21;;;;;;;6.28;2.88;;;;;;;17.37;63.60;100195.47;12615695;23;96933;-82
2023/03/23 17:58:25;;;;;;;4.65;2.50;;;;;;;17.36;63.25;100207.09;12613989;23;97104;-83
2023/03/23 18:03:38;;;;;;;4.78;2.63;;;;;;;17.41;63.56;100220.91;12614509;23;96799;-83
2023/03/23 18:08:44;;;;;;;3.80;2.30;;;;;;;17.34;64.08;100219.63;12614552;23;96709;-82
2023/03/23 18:14:02;;;;;;;3.38;2.10;;;;;;;17.26;63.93;100222.78;12615358;23;97028;-82
2023/03/23 18:19:08;;;;;;;4.82;1.90;;;;;;;17.26;63.47;100214.81;12613936;23;96904;-83
2023/03/23 18:24:15;;;;;;;3.25;1.80;;;;;;;17.34;63.60;100219.63;12614664;23;96955;-83
2023/03/23 18:29:19;;;;;;;3.22;1.88;;;;;;;17.38;63.46;100221.13;12614684;23;96775;-83
2023/03/23 18:34:25;;;;;;;4.60;1.90;;;;;;;17.29;64.08;100219.97;12615864;23;97429;-82
2023/03/23 18:39:35;;;;;;;3.55;1.42;;;;;;;17.25;63.84;100218.44;12615287;23;96652;-82
2023/03/23 18:44:39;;;;;;;3.00;1.23;;;;;;;17.21;63.42;100224.91;12615265;23;96793;-82
2023/03/23 18:49:50;;;;;;;5.63;1.60;;;;;;;17.15;64.00;100211.19;12613683;23;96751;-82
2023/03/23 18:54:58;;;;;;;2.72;1.40;;;;;;;17.07;63.75;100203.72;12614354;23;96988;-83
2023/03/23 19:00:15;;;;;;;4.25;1.40;;;;;;;16.99;65.06;100209.56;12614698;23;96635;-82
2023/03/23 19:05:18;;;;;;;2.35;1.60;;;;;;;16.95;65.18;100215.16;12615187;23;96591;-83
2023/03/23 19:10:32;;;;;;;2.25;1.42;;;;;;;16.91;65.30;100203.06;12615239;23;96645;-82
2023/03/23 19:15:45;;;;;;;2.88;1.40;;;;;;;16.84;65.32;100215.88;12614523;23;96665;-82
2023/03/23 19:20:49;;;;;;;3.80;1.45;;;;;;;16.89;66.09;100218.25;12614680;23;96767;-82
2023/03/23 19:26:03;;;;;;;5.15;2.13;;;;;;;16.79;66.73;100223.28;12615913;23;96664;-82
2023/03/23 19:31:06;;;;;;;3.70;1.65;;;;;;;16.77;67.25;100221.72;12614754;23;96689;-82
2023/03/23 19:36:12;;;;;;;3.58;1.73;;;;;;;16.82;66.39;100231.09;12614571;23;96692;-83
2023/03/23 19:41:20;;;;;;;2.58;1.52;;;;;;;16.85;66.23;100230.03;12613409;23;96694;-81
2023/03/23 19:46:23;;;;;;;2.17;1.30;;;;;;;16.81;67.25;100236.47;12614743;23;97346;-82
2023/03/23 19:51:30;;;;;;;2.47;1.35;;;;;;;16.85;66.89;100253.94;12614831;23;97000;-83
2023/03/23 19:56:43;;;;;;;2.58;1.48;;;;;;;16.77;68.01;100277.50;12614901;23;96698;-82
2023/03/23 20:01:53;;;;;;;2.55;1.20;;;;;;;16.68;69.14;100275.44;12613657;23;96654;-83
2023/03/23 20:07:00;;;;;;;3.60;1.40;;;;;;;16.57;69.75;100285.88;12553795;23;96703;-83
2023/03/23 20:12:07;;;;;;;2.08;0.90;;;;;;;16.58;69.31;100284.97;12553683;23;97112;-83
2023/03/23 20:17:18;;;;;;;2.13;1.38;;;;;;;16.63;68.91;100283.72;12554204;23;96649;-83
2023/03/23 20:22:25;;;;;;;5.20;2.03;;;;;;;16.67;69.12;100298.50;12553375;23;97003;-83
2023/03/23 20:27:29;;;;;;;3.38;1.80;;;;;;;16.63;70.38;100312.94;12553808;23;96691;-83
2023/03/23 20:32:45;;;;;;;3.00;1.52;;;;;;;16.66;70.31;100301.25;12552801;23;96689;-83
2023/03/23 20:37:54;;;;;;;3.50;1.45;;;;;;;16.56;71.22;100306.31;12552794;23;96627;-83
2023/03/23 20:43:02;;;;;;;3.78;1.42;;;;;;;16.68;70.82;100310.84;12553489;23;96937;-83
2023/03/23 20:48:08;;;;;;;2.67;1.35;;;;;;;16.48;71.95;100303.25;12552838;23;96815;-82
2023/03/23 20:53:17;;;;;;;2.80;1.60;;;;;;;16.40;72.26;100317.97;12552911;23;96800;-82
2023/03/23 20:58:31;;;;;;;5.05;1.70;;;;;;;16.34;72.44;100332.44;12552729;23;96815;-82
2023/03/23 21:03:37;;;;;;;2.20;1.40;;;;;;;16.33;72.73;100324.59;12553627;23;96785;-82
2023/03/23 21:08:43;;;;;;;3.45;1.40;;;;;;;16.25;73.11;100327.72;12553754;23;96643;-82
2023/03/23 21:13:58;;;;;;;2.85;1.48;;;;;;;16.27;72.99;100333.78;12554998;23;96733;-83
2023/03/23 21:19:04;;;;;;;3.65;1.52;;;;;;;16.27;72.43;100340.91;12555268;23;97408;-83
2023/03/23 21:24:19;;;;;;;;;;;;;;;;;;;;;
2023/03/23 21:29:36;;;;;;;;;;;;;;;;;;;;;
2023/03/23 21:34:41;;;;;;;1.13;0.40;;;;;;;16.19;73.61;100345.81;12554953;23;96732;-82
2023/03/23 21:39:47;;;;;;;0.80;0.60;;;;;;;16.24;73.19;100336.63;12555509;23;96684;-82
2023/03/23 21:44:56;;;;;;;0.70;0.50;;;;;;;16.28;72.58;100339.94;12554996;23;96660;-81
2023/03/23 21:50:10;;;;;;;;;;;;;;;;;;;;;
2023/03/23 21:55:15;;;;;;;2.07;0.53;;;;;;;16.29;72.58;100336.38;12553720;23;96830;-83
2023/03/23 23:04:16;;;;;;;0.75;0.50;;;;;;;16.34;74.28;100313.03;12462700;23;97154;-82
2023/03/23 23:09:21;;;;;;;0.95;0.40;;;;;;;16.36;75.05;100335.03;12433888;23;96708;-82
2023/03/23 23:14:24;;;;;;;2.08;0.70;;;;;;;16.34;75.13;100334.28;12433715;23;96976;-82
2023/03/23 23:19:31;;;;;;;0.93;0.63;;;;;;;16.27;75.52;100338.25;12433527;23;96855;-81
2023/03/23 23:24:34;;;;;;;0.95;0.40;;;;;;;16.26;76.39;100336.53;12433791;23;96664;-82
2023/03/23 23:29:39;;;;;;;0.80;0.57;;;;;;;16.20;76.18;100313.03;12434648;23;96670;-82
2023/03/23 23:34:55;;;;;;;1.77;0.60;;;;;;;16.21;75.98;100314.72;12431714;23;97280;-82
2023/03/23 23:40:13;;;;;;;;;;;;;;;;;;;;;
